Time;durP1;ratioP1;P1;durP2;ratioP2;P2;SDS_P1;SDS_P2;PMS_P1;PMS_P2;Temp;Humidity;BMP_temperature;BMP_pressure;BME280_temperature;BME280_humidity;BME280_pressure;Samples;Min_cycle;Max_cycle;Signal;HPM_P1;HPM_P2
2022/08/12 00:44:57;;;;;;;1999.90;999.90;;;;;;;15.48;60.54;99379.97;10003763;23;19956;-77
2022/08/12 00:49:00;;;;;;;1999.90;999.90;;;;;;;15.35;61.08;99392.50;10000088;23;20046;-77
2022/08/12 00:53:02;;;;;;;1999.90;999.90;;;;;;;15.33;61.33;99380.34;10004350;23;20026;-77
2022/08/12 00:57:27;;;;;;;1999.90;999.90;;;;;;;15.29;61.47;99387.41;10005263;23;20030;-77
2022/08/12 01:01:32;;;;;;;1999.90;999.90;;;;;;;15.26;62.13;99386.59;10010213;23;20037;-77
2022/08/12 01:14:36;;;;;;;1999.90;999.90;;;;;;;15.11;62.63;99388.69;10045945;23;20031;-77
2022/08/12 01:18:39;;;;;;;1999.90;999.90;;;;;;;15.03;62.75;99390.63;9999068;23;20057;-76
2022/08/12 01:22:52;;;;;;;1999.90;999.90;;;;;;;14.94;61.95;99389.97;10004128;23;20090;-77
2022/08/12 01:26:55;;;;;;;1999.90;999.90;;;;;;;14.89;62.50;99390.03;10019161;23;20437;-77
2022/08/12 01:31:01;;;;;;;1999.90;999.90;;;;;;;14.84;62.95;99388.44;9999091;23;20034;-77
2022/08/12 01:35:11;;;;;;;1999.90;999.90;;;;;;;14.79;63.03;99378.94;9981947;23;20025;-77
2022/08/12 01:39:15;;;;;;;1999.90;999.90;;;;;;;14.75;63.27;99379.06;10043931;23;20308;-77
2022/08/12 01:43:20;;;;;;;1999.90;999.90;;;;;;;14.70;63.09;99386.97;10004283;23;20231;-77
2022/08/12 01:47:55;;;;;;;1999.90;999.90;;;;;;;14.62;63.67;99382.81;10025540;23;20042;-77
2022/08/12 01:52:05;;;;;;;1999.90;999.90;;;;;;;14.53;64.13;99381.22;10027331;23;20027;-77
2022/08/12 01:56:24;;;;;;;1999.90;999.90;;;;;;;14.46;63.70;99377.03;10027525;23;20018;-78
2022/08/12 02:00:43;;;;;;;1999.90;999.90;;;;;;;14.41;64.71;99373.63;10024328;23;20113;-77
2022/08/12 02:15:11;;;;;;;1999.90;999.90;;;;;;;14.25;64.58;99361.78;10033511;23;20022;-77
2022/08/12 02:19:36;;;;;;;1999.90;999.90;;;;;;;14.19;64.78;99362.75;10032002;23;20042;-77
2022/08/12 02:23:39;;;;;;;1999.90;999.90;;;;;;;14.12;64.99;99368.97;10032866;23;20018;-77
2022/08/12 02:27:52;;;;;;;1999.90;999.90;;;;;;;14.01;65.49;99370.94;10008898;23;20018;-77
2022/08/12 02:31:56;;;;;;;1999.90;999.90;;;;;;;13.98;65.55;99368.38;10029064;23;20119;-77
2022/08/12 02:36:01;;;;;;;1999.90;999.90;;;;;;;14.01;65.55;99371.81;10032992;23;20398;-77
2022/08/12 02:40:04;;;;;;;1999.90;999.90;;;;;;;14.01;65.92;99363.13;10032895;23;20022;-77
2022/08/12 02:44:09;;;;;;;1999.90;999.90;;;;;;;13.97;66.05;99369.25;10034175;23;20022;-76
2022/08/12 02:48:16;;;;;;;1999.90;999.90;;;;;;;13.94;66.02;99374.53;10051918;23;20342;-77
2022/08/12 02:52:19;;;;;;;1999.90;999.90;;;;;;;13.79;66.43;99373.06;10032321;23;20647;-77
2022/08/12 02:56:21;;;;;;;1999.90;999.90;;;;;;;13.73;66.22;99376.66;10032465;23;20023;-77
2022/08/12 03:00:25;;;;;;;1999.90;999.90;;;;;;;13.66;66.57;99382.00;10029422;23;20085;-76
2022/08/12 03:04:37;;;;;;;1999.90;999.90;;;;;;;13.64;67.34;99379.41;10032375;23;20022;-77
2022/08/12 03:08:46;;;;;;;1999.90;999.90;;;;;;;13.64;67.40;99389.84;10028788;23;20026;-77
2022/08/12 03:12:57;;;;;;;1999.90;999.90;;;;;;;13.63;67.12;99393.34;10028518;23;20089;-77
2022/08/12 03:17:28;;;;;;;1999.90;999.90;;;;;;;13.65;66.64;99390.72;10024904;23;20058;-77
2022/08/12 03:21:33;;;;;;;1999.90;999.90;;;;;;;13.57;67.18;99389.09;10001950;23;20022;-77
2022/08/12 03:25:57;;;;;;;1999.90;999.90;;;;;;;13.51;67.52;99401.38;10007028;23;20057;-77
2022/08/12 03:29:59;;;;;;;1999.90;999.90;;;;;;;13.51;67.49;99401.38;10027912;23;20027;-76
2022/08/12 03:34:06;;;;;;;1999.90;999.90;;;;;;;13.44;67.37;99402.34;10022757;23;20022;-76
2022/08/12 03:38:10;;;;;;;1999.90;999.90;;;;;;;13.44;67.22;99398.00;10005726;23;20086;-77
2022/08/12 03:42:31;;;;;;;1999.90;999.90;;;;;;;13.43;67.94;99401.47;10006841;23;20715;-77
2022/08/12 04:04:00;;;;;;;1999.90;999.90;;;;;;;13.13;68.85;99399.34;10026056;23;20031;-77
2022/08/12 04:08:02;;;;;;;1999.90;999.90;;;;;;;13.11;68.42;99401.97;10004790;23;20050;-77
2022/08/12 04:16:26;;;;;;;1999.90;999.90;;;;;;;12.92;69.19;99403.94;10000995;23;20293;-77
2022/08/12 04:20:29;;;;;;;;;;;;;;;12.96;69.38;99410.00;10030817;23;20033;-77
2022/08/12 04:24:33;;;;;;;1999.90;999.90;;;;;;;12.82;69.88;99410.19;10032881;23;19940;-78
2022/08/12 04:28:35;;;;;;;1999.90;999.90;;;;;;;12.83;70.48;99408.44;10007217;23;20065;-77
2022/08/12 04:32:37;;;;;;;1999.90;999.90;;;;;;;12.80;69.87;99406.72;10003848;23;20037;-77
2022/08/12 04:36:44;;;;;;;1999.90;999.90;;;;;;;12.83;70.23;99413.63;10006394;23;20026;-78
2022/08/12 04:40:47;;;;;;;1999.90;999.90;;;;;;;12.89;69.97;99410.94;10030508;23;20491;-77
2022/08/12 04:44:48;;;;;;;;;;;;;;;12.97;70.38;99414.31;10031408;23;20266;-78
2022/08/12 04:48:51;;;;;;;1999.90;999.90;;;;;;;13.04;69.96;99415.94;10026994;23;20305;-78
2022/08/12 04:52:54;;;;;;;1999.90;999.90;;;;;;;13.10;69.53;99421.06;10047931;23;20315;-78
2022/08/12 04:56:56;;;;;;;1999.90;999.90;;;;;;;13.14;69.79;99419.31;10030892;23;20027;-78
2022/08/12 05:01:06;;;;;;;1999.90;999.90;;;;;;;13.25;69.04;99420.88;10027974;23;20875;-77
2022/08/12 05:05:17;;;;;;;1999.90;999.90;;;;;;;13.37;68.60;99427.69;10032279;23;20058;-77
2022/08/12 05:09:19;;;;;;;1999.90;999.90;;;;;;;13.47;68.11;99431.00;10030954;23;20022;-77
2022/08/12 05:13:26;;;;;;;1999.90;999.90;;;;;;;13.63;67.86;99429.00;10070665;23;20022;-78
2022/08/12 05:17:27;;;;;;;1999.90;999.90;;;;;;;13.83;67.70;99426.94;10025020;23;20050;-79
2022/08/12 05:21:31;;;;;;;1999.90;999.90;;;;;;;13.98;67.80;99426.66;10007348;23;20027;-77
2022/08/12 05:25:33;;;;;;;1999.90;999.90;;;;;;;14.20;66.89;99427.16;10006842;23;20023;-77
2022/08/12 05:29:35;;;;;;;1999.90;999.90;;;;;;;14.41;66.83;99428.50;10046216;23;20031;-77
2022/08/12 05:33:57;;;;;;;1999.90;999.90;;;;;;;14.62;66.12;99430.72;10022473;23;20105;-77
2022/08/12 05:42:18;;;;;;;1999.90;999.90;;;;;;;15.91;63.15;99434.75;10031355;23;20034;-78
2022/08/12 05:46:36;;;;;;;1999.90;999.90;;;;;;;16.85;60.36;99435.72;10029773;23;20427;-78
2022/08/12 05:50:37;;;;;;;1999.90;999.90;;;;;;;17.54;57.75;99426.59;10005718;23;20045;-78
2022/08/12 05:54:43;;;;;;;1999.90;999.90;;;;;;;17.91;56.68;99428.91;10006432;23;20037;-78
2022/08/12 05:59:00;;;;;;;1999.90;999.90;;;;;;;18.16;56.70;99433.34;10023912;23;20902;-78
2022/08/12 06:03:03;;;;;;;1999.90;999.90;;;;;;;18.40;56.03;99433.34;9999373;23;20038;-78
2022/08/12 06:07:07;;;;;;;1999.90;999.90;;;;;;;18.81;54.80;99427.50;10031410;23;20018;-77
2022/08/12 06:11:29;;;;;;;1999.90;999.90;;;;;;;19.40;52.52;99422.59;10028932;23;20026;-78
2022/08/12 06:15:31;;;;;;;1999.90;999.90;;;;;;;20.22;49.13;99426.22;10016485;23;20457;-77
2022/08/12 06:19:34;;;;;;;1999.90;999.90;;;;;;;21.13;46.20;99429.19;10003655;23;20394;-77
2022/08/12 06:23:56;;;;;;;1999.90;999.90;;;;;;;21.97;43.23;99425.97;10007689;23;20030;-77
2022/08/12 06:27:58;;;;;;;1999.90;999.90;;;;;;;22.61;41.21;99429.75;10028715;23;20029;-78
2022/08/12 06:32:08;;;;;;;1999.90;999.90;;;;;;;23.10;39.23;99425.34;9999163;23;20055;-77
2022/08/12 06:36:12;;;;;;;1999.90;999.90;;;;;;;23.45;37.95;99426.00;10019671;23;20061;-78
2022/08/12 06:44:41;;;;;;;1999.90;999.90;;;;;;;24.22;35.96;99426.88;10029014;23;20054;-77
2022/08/12 06:48:43;;;;;;;1999.90;999.90;;;;;;;24.53;35.09;99418.81;10023725;23;20050;-77
2022/08/12 06:52:44;;;;;;;1999.90;999.90;;;;;;;24.81;34.41;99439.22;10028046;23;20050;-78
2022/08/12 06:56:46;;;;;;;1999.90;999.90;;;;;;;25.11;34.28;99431.16;10027900;23;20311;-77
2022/08/12 07:01:06;;;;;;;1999.90;999.90;;;;;;;25.34;33.86;99426.19;10029159;23;20034;-77
2022/08/12 07:05:08;;;;;;;1999.90;999.90;;;;;;;25.56;33.53;99422.03;10045736;23;20022;-77
2022/08/12 07:09:09;;;;;;;1999.90;999.90;;;;;;;25.81;32.84;99418.63;10052608;23;20334;-78
2022/08/12 07:13:37;;;;;;;;;;;;;;;25.95;32.65;99406.22;10010619;23;20106;-77
2022/08/12 07:17:59;;;;;;;1999.90;999.90;;;;;;;26.22;32.92;99408.81;10028054;23;19929;-77
2022/08/12 07:22:05;;;;;;;1999.90;999.90;;;;;;;26.40;32.16;99411.09;10033211;23;20371;-77
2022/08/12 07:26:08;;;;;;;1999.90;999.90;;;;;;;26.67;31.98;99418.09;10031931;23;20023;-77
2022/08/12 07:30:13;;;;;;;1999.90;999.90;;;;;;;26.83;31.47;99410.75;10028464;23;20109;-77
2022/08/12 07:34:15;;;;;;;1999.90;999.90;;;;;;;27.03;31.26;99420.88;10029973;23;20027;-78
2022/08/12 07:38:32;;;;;;;1999.90;999.90;;;;;;;27.22;30.52;99420.38;10031493;23;20391;-78
2022/08/12 07:42:34;;;;;;;1999.90;999.90;;;;;;;27.43;30.62;99428.63;10007523;23;20125;-78
2022/08/12 07:46:39;;;;;;;1999.90;999.90;;;;;;;27.60;29.63;99424.72;10001803;23;20081;-78
2022/08/12 07:50:41;;;;;;;1999.90;999.90;;;;;;;27.69;29.46;99416.94;10031249;23;20038;-78
2022/08/12 07:54:43;;;;;;;1999.90;999.90;;;;;;;27.90;29.39;99424.28;10032428;23;20026;-78
2022/08/12 07:58:45;;;;;;;1999.90;999.90;;;;;;;28.08;28.97;99416.72;10046755;23;20054;-77
2022/08/12 08:02:48;;;;;;;1999.90;999.90;;;;;;;28.23;28.99;99420.88;10026248;23;20581;-78
2022/08/12 08:06:50;;;;;;;1999.90;999.90;;;;;;;28.47;28.71;99426.16;10005974;23;20019;-77
2022/08/12 08:12:52;;;;;;;1999.90;999.90;;;;;;;28.60;28.19;99432.28;10004740;23;20031;-77
2022/08/12 08:15:15;;;;;;;1999.90;999.90;;;;;;;28.77;27.98;99431.78;10002729;23;20026;-78
2022/08/12 08:19:24;;;;;;;1999.90;999.90;;;;;;;28.96;27.86;99427.69;10001646;23;20489;-78
2022/08/12 08:24:13;;;;;;;1999.90;999.90;;;;;;;29.15;27.45;99431.44;10027858;23;20122;-77
2022/08/12 08:28:04;;;;;;;1999.90;999.90;;;;;;;29.38;27.42;99429.56;10005392;23;20125;-78
2022/08/12 08:32:06;;;;;;;1999.90;999.90;;;;;;;29.52;26.77;99435.66;10035547;23;20668;-77
2022/08/12 08:36:09;;;;;;;1999.90;999.90;;;;;;;29.71;26.69;99434.00;10046489;23;20448;-77
2022/08/12 08:44:44;;;;;;;1999.90;999.90;;;;;;;30.07;26.17;99416.72;10005521;23;20675;-78
2022/08/12 08:48:45;;;;;;;1999.90;999.90;;;;;;;30.26;25.78;99421.38;10028058;23;20445;-76
2022/08/12 08:52:47;;;;;;;1999.90;999.90;;;;;;;30.27;24.78;99422.22;10046232;23;20103;-76
2022/08/12 08:56:49;;;;;;;1999.90;999.90;;;;;;;30.29;24.97;99421.09;10004423;23;20022;-77
2022/08/12 09:00:51;;;;;;;1999.90;999.90;;;;;;;30.33;24.75;99425.22;9976185;23;20057;-77
2022/08/12 09:04:53;;;;;;;1999.90;999.90;;;;;;;30.41;24.46;99413.84;10005501;23;20058;-76
2022/08/12 09:09:16;;;;;;;1999.90;999.90;;;;;;;30.42;24.40;99409.34;9983899;23;20027;-77
2022/08/12 09:13:27;;;;;;;1999.90;999.90;;;;;;;30.53;24.38;99412.81;10029659;23;20027;-76
2022/08/12 09:17:55;;;;;;;1999.90;999.90;;;;;;;30.47;24.06;99407.94;10003312;23;20045;-76
2022/08/12 09:21:59;;;;;;;1999.90;999.90;;;;;;;30.45;24.29;99403.72;10027320;23;20057;-76
2022/08/12 09:26:02;;;;;;;1999.90;999.90;;;;;;;30.47;24.11;99399.91;10040899;23;20110;-76
2022/08/12 09:30:24;;;;;;;1999.90;999.90;;;;;;;30.68;24.06;99403.44;10022196;23;20114;-76
2022/08/12 09:34:44;;;;;;;1999.90;999.90;;;;;;;30.75;23.32;99400.22;10000609;23;20406;-75
2022/08/12 09:38:51;;;;;;;1999.90;999.90;;;;;;;30.72;23.75;99393.31;10026138;23;20038;-77
2022/08/12 09:47:28;;;;;;;1999.90;999.90;;;;;;;30.73;23.20;99399.53;10023022;23;20025;-76
2022/08/12 09:51:33;;;;;;;1999.90;999.90;;;;;;;30.82;23.77;99385.28;10002472;23;20486;-76
2022/08/12 09:55:42;;;;;;;1999.90;999.90;;;;;;;30.90;24.13;99372.06;9979978;23;20022;-77
2022/08/12 10:00:05;;;;;;;1999.90;999.90;;;;;;;31.13;23.58;99372.69;9978357;23;20089;-75
2022/08/12 10:04:19;;;;;;;1999.90;999.90;;;;;;;31.20;23.65;99376.53;9980347;23;20383;-76
2022/08/12 10:08:23;;;;;;;1999.90;999.90;;;;;;;31.24;23.45;99367.25;10002637;23;20455;-76
2022/08/12 10:17:05;;;;;;;1999.90;999.90;;;;;;;31.15;23.36;99352.78;10021088;23;20031;-78
2022/08/12 10:21:15;;;;;;;1999.90;999.90;;;;;;;31.27;23.24;99349.03;10001259;23;20113;-76
2022/08/12 10:29:59;;;;;;;1999.90;999.90;;;;;;;31.42;22.42;99340.53;10001348;23;20065;-76
2022/08/12 10:34:22;;;;;;;1999.90;999.90;;;;;;;31.48;22.25;99335.47;10001289;23;20101;-76
2022/08/12 10:38:27;;;;;;;1999.90;999.90;;;;;;;31.60;22.61;99340.69;10003005;23;20027;-77
2022/08/12 10:47:03;;;;;;;1999.90;999.90;;;;;;;31.57;22.94;99323.03;10018653;23;20125;-76
2022/08/12 10:51:29;;;;;;;1999.90;999.90;;;;;;;31.57;22.33;99323.88;10001969;23;20085;-77
2022/08/12 10:55:53;;;;;;;1999.90;999.90;;;;;;;31.65;20.98;99331.22;10004979;23;20034;-77
2022/08/12 10:59:58;;;;;;;1999.90;999.90;;;;;;;31.68;21.45;99320.22;10002517;23;20023;-77
2022/08/12 11:04:20;;;;;;;1999.90;999.90;;;;;;;31.73;21.40;99325.16;9982196;23;20039;-77
2022/08/12 11:08:41;;;;;;;1999.90;999.90;;;;;;;31.87;21.50;99314.00;10002538;23;20023;-78
2022/08/12 11:12:48;;;;;;;1999.90;999.90;;;;;;;32.00;21.76;99316.38;10027851;23;20695;-78
2022/08/12 11:17:05;;;;;;;1999.90;999.90;;;;;;;32.10;21.77;99309.13;10032599;23;20098;-78
2022/08/12 11:21:27;;;;;;;1999.90;999.90;;;;;;;32.11;21.85;99302.75;10006246;23;20030;-78
2022/08/12 11:25:49;;;;;;;1999.90;999.90;;;;;;;32.27;20.55;99294.13;10005711;23;20117;-77
2022/08/12 11:29:59;;;;;;;1999.90;999.90;;;;;;;32.48;20.25;99305.47;10027575;23;20023;-78
2022/08/12 11:34:07;;;;;;;1999.90;999.90;;;;;;;32.36;20.05;99299.47;10000611;23;20509;-76
2022/08/12 11:38:28;;;;;;;1999.90;999.90;;;;;;;32.43;20.42;99297.03;10000543;23;20102;-77
2022/08/12 11:42:29;;;;;;;1999.90;999.90;;;;;;;32.46;20.45;99296.72;10042165;23;20050;-77
2022/08/12 11:46:37;;;;;;;1999.90;999.90;;;;;;;32.45;20.67;99287.81;9996895;23;20062;-76
2022/08/12 11:50:38;;;;;;;1999.90;999.90;;;;;;;32.61;19.40;99291.69;10000973;23;20031;-75
2022/08/12 11:54:42;;;;;;;1999.90;999.90;;;;;;;32.74;19.48;99287.66;10026332;23;20023;-76
2022/08/12 11:58:52;;;;;;;1999.90;999.90;;;;;;;32.72;19.51;99291.50;10043517;23;20723;-75
2022/08/12 12:03:13;;;;;;;1999.90;999.90;;;;;;;32.67;19.58;99269.56;10022840;23;20027;-75
2022/08/12 12:07:17;;;;;;;1999.90;999.90;;;;;;;32.86;19.56;99274.91;10003758;23;20093;-75
2022/08/12 12:11:20;;;;;;;1999.90;999.90;;;;;;;32.81;20.09;99255.66;10002690;23;20023;-75
2022/08/12 12:15:22;;;;;;;1999.90;999.90;;;;;;;32.73;19.91;99251.00;10025831;23;20030;-76
2022/08/12 12:19:41;;;;;;;1999.90;999.90;;;;;;;32.73;19.19;99252.84;10029480;23;20086;-76
2022/08/12 12:23:46;;;;;;;1999.90;999.90;;;;;;;32.79;19.41;99249.56;10005263;23;20038;-75
2022/08/12 12:27:51;;;;;;;1999.90;999.90;;;;;;;32.79;20.18;99235.25;10004710;23;20019;-75
2022/08/12 12:32:06;;;;;;;1999.90;999.90;;;;;;;32.68;20.04;99221.03;10004434;23;20471;-76
2022/08/12 12:36:12;;;;;;;1999.90;999.90;;;;;;;32.66;19.17;99232.94;10029313;23;20022;-76
2022/08/12 12:40:26;;;;;;;1999.90;999.90;;;;;;;32.76;19.81;99225.66;10029112;23;20030;-75
2022/08/12 12:44:30;;;;;;;1999.90;999.90;;;;;;;32.74;19.99;99217.75;10019930;23;20698;-76
2022/08/12 12:48:52;;;;;;;1999.90;999.90;;;;;;;32.87;19.76;99216.56;9992271;23;20033;-77
2022/08/12 12:52:53;;;;;;;1999.90;999.90;;;;;;;32.94;19.37;99221.16;9977228;23;20022;-77
2022/08/12 12:56:57;;;;;;;1999.90;999.90;;;;;;;33.00;19.94;99209.78;10001108;23;20086;-77
2022/08/12 13:01:00;;;;;;;1999.90;999.90;;;;;;;32.95;19.65;99200.50;9971657;23;20086;-78
2022/08/12 13:05:26;;;;;;;1999.90;999.90;;;;;;;32.93;20.01;99206.03;9981583;23;20031;-77
2022/08/12 13:09:29;;;;;;;1999.90;999.90;;;;;;;32.87;19.76;99190.50;10001081;23;20022;-78
2022/08/12 13:13:37;;;;;;;1999.90;999.90;;;;;;;33.00;19.62;99192.78;10026557;23;20022;-76
2022/08/12 13:18:03;;;;;;;1999.90;999.90;;;;;;;33.12;19.23;99190.72;9996026;23;20054;-77
2022/08/12 13:22:17;;;;;;;1999.90;999.90;;;;;;;33.09;19.87;99199.09;10040102;23;20026;-77
2022/08/12 13:26:20;;;;;;;1999.90;999.90;;;;;;;33.21;19.98;99198.69;9980213;23;20847;-77
2022/08/12 13:30:24;;;;;;;1999.90;999.90;;;;;;;33.29;19.42;99196.06;10015748;23;20029;-77
2022/08/12 13:34:26;;;;;;;1999.90;999.90;;;;;;;33.30;19.94;99186.16;10029873;23;20061;-77
2022/08/12 13:38:43;;;;;;;1999.90;999.90;;;;;;;33.40;19.39;99192.34;10003533;23;20015;-78
2022/08/12 13:43:00;;;;;;;1999.90;999.90;;;;;;;33.42;19.05;99181.41;9980983;23;20580;-78
2022/08/12 13:47:02;;;;;;;1999.90;999.90;;;;;;;33.42;18.62;99186.78;9999143;23;20054;-77
2022/08/12 13:51:19;;;;;;;1999.90;999.90;;;;;;;33.39;19.08;99187.91;10002076;23;20481;-78
2022/08/12 13:55:26;;;;;;;1999.90;999.90;;;;;;;33.41;18.79;99183.25;10028882;23;20029;-77
2022/08/12 13:59:32;;;;;;;1999.90;999.90;;;;;;;33.38;18.29;99183.53;10004207;23;20022;-78
2022/08/12 14:03:49;;;;;;;1999.90;999.90;;;;;;;33.40;19.08;99173.50;9999974;23;20037;-78
2022/08/12 14:07:58;;;;;;;1999.90;999.90;;;;;;;33.39;19.42;99166.38;10029492;23;20019;-78
2022/08/12 14:12:04;;;;;;;1999.90;999.90;;;;;;;33.44;19.39;99168.63;10018875;23;20106;-78
2022/08/12 14:16:12;;;;;;;1999.90;999.90;;;;;;;33.48;19.19;99157.38;10000136;23;20026;-78
2022/08/12 14:20:14;;;;;;;1999.90;999.90;;;;;;;33.39;18.89;99155.63;10003126;23;20474;-78
2022/08/12 14:24:16;;;;;;;1999.90;999.90;;;;;;;33.41;17.92;99155.50;10004388;23;20023;-78
2022/08/12 14:28:22;;;;;;;1999.90;999.90;;;;;;;33.42;17.84;99160.72;10043894;23;20118;-76
2022/08/12 14:32:23;;;;;;;1999.90;999.90;;;;;;;33.37;18.64;99152.25;9997918;23;20316;-78
2022/08/12 14:36:26;;;;;;;1999.90;999.90;;;;;;;33.36;18.33;99164.00;10028618;23;20045;-77
2022/08/12 14:40:28;;;;;;;1999.90;999.90;;;;;;;33.27;18.17;99152.31;10002809;23;20097;-78
2022/08/12 14:44:30;;;;;;;1999.90;999.90;;;;;;;33.23;18.80;99152.81;10004295;23;20360;-77
2022/08/12 14:48:53;;;;;;;1999.90;999.90;;;;;;;33.15;18.29;99156.25;10025809;23;20193;-77
2022/08/12 14:52:54;;;;;;;1999.90;999.90;;;;;;;33.14;18.60;99138.44;10003645;23;20047;-76
2022/08/12 14:57:16;;;;;;;1999.90;999.90;;;;;;;33.12;18.67;99145.81;10002964;23;20318;-77
2022/08/12 15:01:40;;;;;;;1999.90;999.90;;;;;;;33.14;19.09;99137.59;10025810;23;20037;-77
2022/08/12 15:05:43;;;;;;;1999.90;999.90;;;;;;;33.18;19.04;99137.09;10030199;23;20090;-77
2022/08/12 15:10:04;;;;;;;1999.90;999.90;;;;;;;33.28;19.50;99137.03;10029136;23;20022;-76
2022/08/12 15:14:07;;;;;;;1999.90;999.90;;;;;;;33.30;18.67;99133.16;10029696;23;20419;-76
2022/08/12 15:18:20;;;;;;;1999.90;999.90;;;;;;;33.29;18.84;99144.09;10029400;23;20299;-77
2022/08/12 15:22:23;;;;;;;1999.90;999.90;;;;;;;33.22;18.66;99129.59;10004092;23;20018;-77
2022/08/12 15:26:45;;;;;;;1999.90;999.90;;;;;;;33.27;19.14;99136.19;10009223;23;20057;-76
2022/08/12 15:30:51;;;;;;;1999.90;999.90;;;;;;;33.38;19.25;99123.47;9999684;23;20027;-77
2022/08/12 15:34:53;;;;;;;1999.90;999.90;;;;;;;33.34;18.67;99120.25;10030184;23;20715;-76
2022/08/12 15:38:56;;;;;;;1999.90;999.90;;;;;;;33.39;18.82;99112.53;10031086;23;20018;-76
2022/08/12 15:42:59;;;;;;;1999.90;999.90;;;;;;;33.41;18.78;99107.03;10007629;23;20042;-77
2022/08/12 15:47:02;;;;;;;1999.90;999.90;;;;;;;33.38;18.44;99120.78;10032487;23;20027;-76
2022/08/12 15:51:04;;;;;;;1999.90;999.90;;;;;;;33.41;18.85;99113.25;10031100;23;20101;-77
2022/08/12 15:55:12;;;;;;;1999.90;999.90;;;;;;;33.42;18.40;99112.25;10033630;23;20033;-77
2022/08/12 15:59:17;;;;;;;1999.90;999.90;;;;;;;33.47;18.28;99107.22;10031002;23;20046;-76
2022/08/12 16:03:33;;;;;;;1999.90;999.90;;;;;;;33.50;18.27;99111.44;10027984;23;20030;-76
2022/08/12 16:07:56;;;;;;;1999.90;999.90;;;;;;;33.51;18.43;99116.66;10031197;23;20502;-76
2022/08/12 16:12:02;;;;;;;1999.90;999.90;;;;;;;33.50;18.29;99104.22;10007800;23;20081;-76
2022/08/12 16:16:04;;;;;;;1999.90;999.90;;;;;;;33.45;17.98;99114.63;10001680;23;20066;-76
2022/08/12 16:20:26;;;;;;;1999.90;999.90;;;;;;;33.30;17.95;99114.31;10009470;23;20413;-76
2022/08/12 16:24:35;;;;;;;1999.90;999.90;;;;;;;33.13;18.28;99109.81;10046720;23;20027;-76
2022/08/12 16:28:44;;;;;;;1999.90;999.90;;;;;;;32.73;18.78;99113.00;10033217;23;20035;-76
2022/08/12 16:32:49;;;;;;;1999.90;999.90;;;;;;;32.17;19.34;99101.50;10024662;23;20034;-77
2022/08/12 16:36:58;;;;;;;1999.90;999.90;;;;;;;31.72;19.50;99108.63;10026470;23;20027;-76
2022/08/12 16:41:00;;;;;;;1999.90;999.90;;;;;;;31.33;20.04;99113.28;10027270;23;20098;-76
2022/08/12 16:45:02;;;;;;;1999.90;999.90;;;;;;;30.94;20.60;99102.63;10027438;23;20394;-76
2022/08/12 16:49:04;;;;;;;1999.90;999.90;;;;;;;30.66;20.97;99094.44;10024075;23;20023;-76
2022/08/12 16:53:17;;;;;;;1999.90;999.90;;;;;;;30.40;21.16;99095.97;10048810;23;20023;-77
2022/08/12 16:57:30;;;;;;;1999.90;999.90;;;;;;;30.16;21.66;99096.31;10047741;23;20102;-76
2022/08/12 17:01:36;;;;;;;1999.90;999.90;;;;;;;30.00;21.21;99104.03;10044396;23;20027;-76
2022/08/12 17:05:38;;;;;;;1999.90;999.90;;;;;;;29.85;21.35;99094.69;10024724;23;20119;-76
2022/08/12 17:09:49;;;;;;;1999.90;999.90;;;;;;;29.69;21.55;99101.41;10042818;23;20130;-76
2022/08/12 17:13:52;;;;;;;1999.90;999.90;;;;;;;29.53;21.92;99103.72;10043905;23;20023;-77
2022/08/12 17:17:55;;;;;;;1999.90;999.90;;;;;;;29.43;21.91;99094.75;10044477;23;20031;-76
2022/08/12 17:22:17;;;;;;;1999.90;999.90;;;;;;;29.27;22.13;99095.25;10025629;23;20062;-76
2022/08/12 17:26:23;;;;;;;1999.90;999.90;;;;;;;29.13;22.99;99099.09;10042961;23;20046;-76
2022/08/12 17:30:34;;;;;;;1999.90;999.90;;;;;;;29.03;22.81;99102.69;10019567;23;20098;-76
2022/08/12 17:38:56;;;;;;;1999.90;999.90;;;;;;;28.87;22.88;99103.13;10003944;23;20033;-77
2022/08/12 17:43:09;;;;;;;1999.90;999.90;;;;;;;28.77;23.01;99103.03;10007415;23;20033;-76
2022/08/12 17:47:32;;;;;;;1999.90;999.90;;;;;;;28.63;23.04;99100.69;10025973;23;20103;-76
2022/08/12 17:51:37;;;;;;;1999.90;999.90;;;;;;;28.52;23.78;99106.06;9978277;23;20026;-76
2022/08/12 17:55:51;;;;;;;1999.90;999.90;;;;;;;28.37;23.51;99102.84;10028291;23;20712;-76
2022/08/12 17:59:54;;;;;;;1999.90;999.90;;;;;;;28.33;23.50;99097.88;10028165;23;20058;-77
2022/08/12 18:03:57;;;;;;;1999.90;999.90;;;;;;;28.29;23.62;99099.94;9998280;23;20059;-77
2022/08/12 18:08:20;;;;;;;1999.90;999.90;;;;;;;28.19;23.59;99115.84;10044193;23;20022;-76
2022/08/12 18:12:40;;;;;;;1999.90;999.90;;;;;;;28.10;24.02;99118.41;10001112;23;20065;-76
2022/08/12 18:16:52;;;;;;;1999.90;999.90;;;;;;;27.97;24.22;99115.88;9998387;23;20117;-76
2022/08/12 18:20:56;;;;;;;1999.90;999.90;;;;;;;27.85;24.21;99124.88;10027035;23;20414;-77
2022/08/12 18:24:59;;;;;;;1999.90;999.90;;;;;;;27.75;24.40;99124.75;10002380;23;20034;-76
2022/08/12 18:29:05;;;;;;;1999.90;999.90;;;;;;;27.62;25.15;99132.84;10027128;23;20019;-77
2022/08/12 18:33:09;;;;;;;1999.90;999.90;;;;;;;27.45;26.09;99130.63;9996996;23;20662;-76
2022/08/12 18:37:12;;;;;;;1999.90;999.90;;;;;;;27.29;25.75;99136.34;9955074;23;20019;-76
2022/08/12 18:41:34;;;;;;;;;;;;;;;27.13;26.97;99132.31;9977793;23;20038;-76
2022/08/12 18:45:41;;;;;;;1999.90;999.90;;;;;;;26.94;26.64;99127.50;9973222;23;19921;-76
2022/08/12 18:49:57;;;;;;;1999.90;999.90;;;;;;;26.75;27.05;99133.34;9956824;23;20051;-76
2022/08/12 18:53:59;;;;;;;;;;;;;;;26.58;27.01;99129.28;9979632;23;20031;-76
2022/08/12 18:58:12;;;;;;;1999.90;999.90;;;;;;;26.36;27.83;99134.50;9977359;23;19929;-76
2022/08/12 19:02:23;;;;;;;1999.90;999.90;;;;;;;26.05;28.90;99138.53;9949256;23;20834;-76
2022/08/12 19:06:34;;;;;;;1999.90;999.90;;;;;;;25.73;31.30;99141.66;9957535;23;20118;-77
2022/08/12 19:10:41;;;;;;;1999.90;999.90;;;;;;;25.37;32.26;99142.38;9960682;23;20023;-77
2022/08/12 19:14:51;;;;;;;1999.90;999.90;;;;;;;25.03;33.03;99149.16;9964735;23;20023;-78
2022/08/12 19:19:08;;;;;;;1999.90;999.90;;;;;;;24.70;35.55;99144.25;9959696;23;20030;-78
2022/08/12 19:23:10;;;;;;;1999.90;999.90;;;;;;;24.35;35.75;99158.03;9976637;23;20517;-77
2022/08/12 19:27:22;;;;;;;1999.90;999.90;;;;;;;24.05;36.72;99166.09;9986285;23;20019;-77
2022/08/12 19:31:45;;;;;;;1999.90;999.90;;;;;;;23.85;40.02;99158.53;9953366;23;20055;-76
2022/08/12 19:36:03;;;;;;;1999.90;999.90;;;;;;;23.51;38.83;99160.59;10005228;23;20035;-77
2022/08/12 19:40:26;;;;;;;1999.90;999.90;;;;;;;23.24;40.33;99164.94;10033292;23;20045;-77
2022/08/12 19:44:36;;;;;;;1999.90;999.90;;;;;;;22.97;39.74;99164.75;10035166;23;20022;-77
2022/08/12 19:48:39;;;;;;;1999.90;999.90;;;;;;;22.79;40.02;99160.50;10051592;23;20034;-77
2022/08/12 19:52:43;;;;;;;1999.90;999.90;;;;;;;22.61;38.80;99157.13;10009885;23;20031;-77
2022/08/12 19:56:49;;;;;;;1999.90;999.90;;;;;;;22.45;40.62;99167.75;10032017;23;20047;-77
2022/08/12 20:00:51;;;;;;;1999.90;999.90;;;;;;;22.31;40.62;99159.72;10027128;23;20035;-77
2022/08/12 20:04:56;;;;;;;1999.90;999.90;;;;;;;22.14;41.46;99165.97;10042385;23;20030;-77
2022/08/12 20:09:18;;;;;;;1999.90;999.90;;;;;;;21.96;42.18;99167.78;10042673;23;20098;-76
2022/08/12 20:13:20;;;;;;;1999.90;999.90;;;;;;;21.80;42.17;99173.97;10030441;23;20023;-75
2022/08/12 20:17:38;;;;;;;1999.90;999.90;;;;;;;21.65;41.71;99176.50;10025346;23;20046;-75